createdAt,value
2023-04-17T00:01:38.808Z,3.90
2023-04-17T00:04:11.414Z,4.32
2023-04-17T00:06:39.448Z,3.72
2023-04-17T00:09:07.034Z,4.22
2023-04-17T00:11:34.324Z,3.00
2023-04-17T00:14:01.873Z,4.43
2023-04-17T00:16:29.191Z,4.38
2023-04-17T00:18:56.765Z,5.10
2023-04-17T00:21:24.071Z,4.25
2023-04-17T00:23:51.656Z,5.82
2023-04-17T00:26:19.692Z,4.10
2023-04-17T00:28:48.820Z,4.72
2023-04-17T00:31:16.136Z,4.60
2023-04-17T00:33:43.733Z,5.00
2023-04-17T00:36:13.505Z,4.78
2023-04-17T00:38:41.109Z,4.03
2023-04-17T00:41:08.405Z,3.72
2023-04-17T00:43:36.139Z,3.90
2023-04-17T00:46:04.317Z,4.00
2023-04-17T00:48:32.164Z,3.83
2023-04-17T00:51:02.360Z,4.80
2023-04-17T00:53:31.627Z,3.30
2023-04-17T00:56:04.236Z,4.30
2023-04-17T00:58:31.945Z,3.97
2023-04-17T01:00:59.969Z,3.85
2023-04-17T01:03:29.540Z,3.22
2023-04-17T01:05:57.048Z,4.55
2023-04-17T01:08:24.705Z,4.18
2023-04-17T01:10:52.005Z,4.10
2023-04-17T01:13:19.601Z,4.10
2023-04-17T01:15:47.105Z,4.32
2023-04-17T01:18:14.816Z,3.78
2023-04-17T01:20:42.139Z,4.38
2023-04-17T01:23:09.904Z,5.28
2023-04-17T01:25:37.204Z,5.35
2023-04-17T01:28:05.574Z,5.47
2023-04-17T01:30:32.881Z,5.13
2023-04-17T01:33:00.805Z,2.85
2023-04-17T01:35:28.188Z,4.75
2023-04-17T01:37:56.375Z,4.72
2023-04-17T01:40:23.740Z,5.22
2023-04-17T01:42:51.396Z,6.35
2023-04-17T01:45:18.726Z,6.10
2023-04-17T01:47:47.242Z,7.45
2023-04-17T01:50:14.602Z,6.72
2023-04-17T01:52:42.242Z,7.05
2023-04-17T01:55:09.779Z,5.28
2023-04-17T01:57:37.435Z,6.30
2023-04-17T02:00:09.218Z,6.75
2023-04-17T02:02:37.047Z,7.50
2023-04-17T02:05:04.490Z,6.82
2023-04-17T02:07:32.103Z,5.78
2023-04-17T02:09:59.357Z,7.68
2023-04-17T02:12:26.913Z,7.03
2023-04-17T02:14:54.172Z,6.25
2023-04-17T02:17:21.789Z,6.47
2023-04-17T02:19:49.110Z,6.82
2023-04-17T02:22:18.424Z,6.93
2023-04-17T02:24:45.992Z,6.65
2023-04-17T02:27:13.594Z,7.50
2023-04-17T02:29:41.584Z,7.20
2023-04-17T02:32:09.198Z,7.40
2023-04-17T02:34:36.500Z,6.80
2023-04-17T02:37:04.195Z,7.97
2023-04-17T02:39:31.922Z,5.90
2023-04-17T02:41:59.521Z,8.30
2023-04-17T02:44:26.890Z,7.63
2023-04-17T02:46:54.525Z,7.85
2023-04-17T02:49:21.896Z,8.60
2023-04-17T02:51:49.505Z,8.90
2023-04-17T02:54:16.760Z,8.32
2023-04-17T02:56:44.605Z,8.50
2023-04-17T02:59:12.053Z,9.50
2023-04-17T03:01:40.552Z,8.57
2023-04-17T03:04:07.918Z,8.32
2023-04-17T03:06:35.631Z,7.40
2023-04-17T03:09:05.094Z,8.75
2023-04-17T03:11:32.696Z,8.27
2023-04-17T03:14:00.045Z,8.07
2023-04-17T03:16:27.619Z,8.25
2023-04-17T03:18:55.011Z,9.05
2023-04-17T03:21:22.567Z,8.68
2023-04-17T03:23:49.852Z,8.60
2023-04-17T03:26:17.431Z,8.73
2023-04-17T03:28:44.854Z,8.93
2023-04-17T03:31:12.467Z,8.95
2023-04-17T03:33:39.815Z,8.52
2023-04-17T03:36:07.580Z,9.10
2023-04-17T03:38:36.342Z,7.95
2023-04-17T03:41:03.989Z,9.10
2023-04-17T03:43:31.261Z,8.57
2023-04-17T03:45:58.929Z,9.52
2023-04-17T03:48:26.238Z,8.02
2023-04-17T03:50:54.120Z,7.93
2023-04-17T03:53:21.429Z,7.95
2023-04-17T03:55:49.083Z,7.60
2023-04-17T03:58:16.396Z,7.40
2023-04-17T04:00:45.630Z,8.40
2023-04-17T04:03:13.048Z,7.50
2023-04-17T04:05:40.822Z,7.63
2023-04-17T04:08:08.191Z,7.22
2023-04-17T04:10:35.920Z,6.05
2023-04-17T04:13:03.248Z,6.70
2023-04-17T04:15:30.879Z,7.43
2023-04-17T04:17:58.225Z,6.15
2023-04-17T04:20:25.919Z,6.40
2023-04-17T04:22:53.732Z,6.57
2023-04-17T04:25:21.541Z,4.82
2023-04-17T04:27:49.822Z,6.65
2023-04-17T04:30:17.650Z,6.32
2023-04-17T04:32:47.813Z,5.95
2023-04-17T04:35:15.835Z,5.20
2023-04-17T04:37:46.335Z,5.15
2023-04-17T04:40:14.873Z,5.28
2023-04-17T04:42:42.475Z,5.80
2023-04-17T04:45:10.601Z,5.05
2023-04-17T04:47:37.932Z,4.88
2023-04-17T04:50:05.709Z,5.13
2023-04-17T04:52:33.041Z,5.07
2023-04-17T04:55:01.514Z,5.53
2023-04-17T04:57:28.871Z,5.05
2023-04-17T04:59:56.565Z,4.20
2023-04-17T05:02:24.025Z,5.50
2023-04-17T05:04:52.214Z,4.15
2023-04-17T05:07:19.606Z,4.78
2023-04-17T05:09:47.243Z,4.70
2023-04-17T05:12:14.573Z,4.93
2023-04-17T05:14:42.223Z,4.75
2023-04-17T05:17:09.514Z,5.00
2023-04-17T05:19:37.088Z,5.22
2023-04-17T05:22:04.393Z,5.43
2023-04-17T05:24:32.020Z,3.53
2023-04-17T05:26:59.724Z,5.20
2023-04-17T05:29:27.406Z,5.72
2023-04-17T05:31:54.833Z,6.03
2023-04-17T05:34:22.482Z,5.28
2023-04-17T05:36:49.761Z,6.35
2023-04-17T05:39:18.036Z,5.60
2023-04-17T05:41:45.459Z,6.40
2023-04-17T05:44:13.028Z,6.65
2023-04-17T05:46:40.328Z,7.00
2023-04-17T05:49:07.854Z,7.70
2023-04-17T05:51:35.291Z,8.25
2023-04-17T05:54:03.415Z,6.68
2023-04-17T05:56:31.440Z,8.05
2023-04-17T05:58:59.110Z,7.88
2023-04-17T06:01:26.530Z,8.07
2023-04-17T06:03:54.289Z,7.95
2023-04-17T06:06:21.639Z,8.40
2023-04-17T06:08:49.215Z,8.60
2023-04-17T06:11:17.204Z,9.00
2023-04-17T06:13:45.093Z,8.40
2023-04-17T06:16:12.442Z,8.88
2023-04-17T06:18:41.453Z,8.88
2023-04-17T06:21:09.231Z,8.52
2023-04-17T06:23:36.874Z,7.65
2023-04-17T06:26:04.236Z,8.93
2023-04-17T06:28:32.262Z,9.25
2023-04-17T06:30:59.704Z,8.25
2023-04-17T06:33:27.296Z,8.07
2023-04-17T06:35:54.591Z,7.82
2023-04-17T06:38:22.368Z,7.78
2023-04-17T06:40:51.437Z,7.32
2023-04-17T06:43:20.316Z,7.30
2023-04-17T06:45:48.404Z,7.40
2023-04-17T06:48:16.087Z,7.05
2023-04-17T06:50:43.482Z,6.93
2023-04-17T06:53:11.089Z,7.43
2023-04-17T06:55:38.404Z,6.88
2023-04-17T06:58:08.034Z,7.07
2023-04-17T07:00:35.493Z,5.80
2023-04-17T07:03:03.487Z,5.65
2023-04-17T07:05:30.989Z,5.18
2023-04-17T07:07:58.605Z,5.30
2023-04-17T07:10:25.973Z,5.05
2023-04-17T07:12:53.582Z,4.93
2023-04-17T07:15:21.127Z,5.13
2023-04-17T07:17:48.746Z,5.47
2023-04-17T07:20:16.085Z,4.53
2023-04-17T07:22:43.638Z,5.05
2023-04-17T07:25:11.350Z,4.82
2023-04-17T07:27:39.417Z,4.70
2023-04-17T07:30:08.295Z,5.45
2023-04-17T07:32:36.721Z,5.28
2023-04-17T07:35:04.532Z,5.68
2023-04-17T07:37:32.771Z,5.57
2023-04-17T07:40:00.072Z,4.32
2023-04-17T07:42:29.209Z,5.38
2023-04-17T07:44:56.829Z,5.50
2023-04-17T07:47:24.581Z,4.82
2023-04-17T07:49:52.048Z,4.82
2023-04-17T07:52:19.955Z,5.60
2023-04-17T07:54:47.254Z,4.88
2023-04-17T07:57:15.572Z,4.43
2023-04-17T07:59:43.041Z,5.00
2023-04-17T08:02:10.952Z,4.50
2023-04-17T08:04:40.487Z,5.10
2023-04-17T08:07:10.661Z,4.90
2023-04-17T08:09:38.064Z,5.55
2023-04-17T08:12:06.442Z,4.97
2023-04-17T08:14:34.125Z,4.25
2023-04-17T08:17:02.551Z,5.13
2023-04-17T08:19:30.100Z,4.70
2023-04-17T08:22:02.402Z,3.20
2023-04-17T08:24:30.377Z,4.65
2023-04-17T08:26:58.369Z,3.95
2023-04-17T08:29:25.883Z,5.68
2023-04-17T08:32:06.511Z,7.70
2023-04-17T08:34:38.771Z,6.35
2023-04-17T08:37:06.490Z,5.45
2023-04-17T08:39:33.798Z,5.43
2023-04-17T08:42:05.425Z,4.25
2023-04-17T08:44:32.745Z,5.03
2023-04-17T08:47:00.796Z,4.65
2023-04-17T08:49:31.852Z,5.38
2023-04-17T08:52:02.397Z,4.40
2023-04-17T08:54:29.772Z,4.90
2023-04-17T08:56:57.738Z,3.78
2023-04-17T08:59:25.101Z,4.32
2023-04-17T09:02:06.651Z,4.82
2023-04-17T09:04:41.967Z,4.88
2023-04-17T09:07:11.129Z,3.50
2023-04-17T09:09:50.856Z,4.95
2023-04-17T09:12:20.605Z,4.35
2023-04-17T09:14:48.003Z,4.30
2023-04-17T09:17:19.273Z,4.15
2023-04-17T09:20:07.324Z,5.07
2023-04-17T09:22:35.823Z,5.15
2023-04-17T09:25:03.556Z,4.63
2023-04-17T09:27:31.759Z,4.63
2023-04-17T09:30:04.063Z,4.70
2023-04-17T09:32:32.227Z,3.42
2023-04-17T09:35:00.650Z,3.95
2023-04-17T09:37:51.169Z,4.22
2023-04-17T09:40:19.305Z,5.03
2023-04-17T09:42:56.106Z,3.90
2023-04-17T09:45:24.346Z,3.97
2023-04-17T09:47:55.919Z,2.92
2023-04-17T09:50:27.059Z,3.47
2023-04-17T09:52:56.091Z,4.05
2023-04-17T09:55:32.556Z,3.85
2023-04-17T09:58:02.588Z,4.18
2023-04-17T10:00:30.204Z,3.85
2023-04-17T10:02:59.045Z,5.53
2023-04-17T10:05:28.717Z,5.63
2023-04-17T10:07:56.845Z,5.35
2023-04-17T10:10:34.199Z,4.35
2023-04-17T10:13:03.257Z,5.80
2023-04-17T10:15:31.123Z,5.28
2023-04-17T10:18:18.950Z,5.97
2023-04-17T10:20:48.330Z,6.88
2023-04-17T10:23:29.262Z,6.00
2023-04-17T10:26:27.986Z,6.50
2023-04-17T10:28:57.802Z,5.90
2023-04-17T10:31:45.291Z,5.63
2023-04-17T10:34:32.848Z,5.68
2023-04-17T10:37:01.445Z,5.68
2023-04-17T10:39:48.888Z,6.85
2023-04-17T10:42:20.233Z,5.55
2023-04-17T10:44:47.942Z,5.63
2023-04-17T10:47:15.378Z,5.07
2023-04-17T10:49:53.152Z,5.50
2023-04-17T10:52:44.702Z,3.85
2023-04-17T10:55:17.573Z,5.57
2023-04-17T10:57:57.552Z,5.45
2023-04-17T11:00:30.351Z,5.25
2023-04-17T11:02:57.870Z,5.77
2023-04-17T11:05:25.791Z,6.25
2023-04-17T11:07:53.240Z,5.63
2023-04-17T11:10:21.337Z,5.05
2023-04-17T11:12:49.088Z,4.32
2023-04-17T11:15:17.076Z,5.72
2023-04-17T11:17:48.270Z,5.13
2023-04-17T11:20:20.921Z,5.30
2023-04-17T11:22:48.432Z,2.83
2023-04-17T11:25:23.474Z,4.88
2023-04-17T11:27:56.022Z,4.63
2023-04-17T11:30:33.619Z,4.47
2023-04-17T11:33:02.349Z,5.15
2023-04-17T11:35:34.331Z,5.90
2023-04-17T11:38:14.324Z,4.95
2023-04-17T11:40:52.074Z,4.07
2023-04-17T11:43:20.638Z,5.55
2023-04-17T11:45:49.357Z,5.70
2023-04-17T11:48:19.846Z,5.55
2023-04-17T11:50:47.431Z,6.80
2023-04-17T11:53:16.224Z,6.80
2023-04-17T11:55:44.419Z,6.13
2023-04-17T11:58:12.688Z,6.50
2023-04-17T12:00:41.146Z,6.80
2023-04-17T12:03:31.346Z,8.40
2023-04-17T12:06:00.125Z,6.10
2023-04-17T12:08:27.498Z,9.48
2023-04-17T12:10:55.079Z,9.23
2023-04-17T12:13:22.341Z,6.93
2023-04-17T12:15:50.590Z,8.98
2023-04-17T12:18:18.047Z,7.38
2023-04-17T12:20:46.232Z,7.03
2023-04-17T12:23:13.488Z,8.68
2023-04-17T12:25:42.259Z,5.70
2023-04-17T12:28:09.542Z,6.20
2023-04-17T12:30:39.757Z,5.70
2023-04-17T12:33:07.209Z,6.85
2023-04-17T12:35:34.832Z,6.15
2023-04-17T12:38:02.400Z,5.97
2023-04-17T12:40:30.076Z,7.10
2023-04-17T12:42:57.419Z,5.18
2023-04-17T12:45:25.004Z,5.88
2023-04-17T12:47:52.424Z,3.75
2023-04-17T12:50:20.389Z,6.10
2023-04-17T12:52:47.808Z,5.00
2023-04-17T12:55:15.676Z,6.18
2023-04-17T12:57:44.006Z,5.55
2023-04-17T13:00:11.745Z,5.88
2023-04-17T13:02:39.229Z,15.23
2023-04-17T13:05:07.442Z,7.18
2023-04-17T13:07:35.139Z,6.47
2023-04-17T13:10:02.739Z,9.10
2023-04-17T13:12:30.065Z,10.82
2023-04-17T13:14:57.937Z,8.88
2023-04-17T13:17:25.559Z,8.82
2023-04-17T13:19:53.172Z,7.10
2023-04-17T13:22:20.640Z,8.57
2023-04-17T13:24:48.348Z,4.85
2023-04-17T13:27:15.735Z,5.57
2023-04-17T13:29:43.343Z,4.30
2023-04-17T13:32:10.608Z,3.65
2023-04-17T13:34:38.199Z,4.78
2023-04-17T13:37:05.712Z,5.22
2023-04-17T13:39:33.419Z,7.28
2023-04-17T13:42:00.728Z,5.80
2023-04-17T13:44:28.414Z,5.15
2023-04-17T13:46:55.846Z,6.13
2023-04-17T13:49:23.591Z,3.85
2023-04-17T13:51:50.926Z,4.65
2023-04-17T13:54:18.882Z,6.63
2023-04-17T13:56:46.236Z,5.72
2023-04-17T13:59:13.995Z,7.32
2023-04-17T14:01:41.751Z,9.25
2023-04-17T14:04:09.619Z,6.38
2023-04-17T14:06:37.427Z,8.43
2023-04-17T14:09:05.819Z,9.48
2023-04-17T14:11:33.125Z,6.70
2023-04-17T14:14:00.727Z,8.63
2023-04-17T14:16:28.186Z,7.03
2023-04-17T14:18:57.933Z,7.90
2023-04-17T14:21:28.556Z,8.25
2023-04-17T14:23:56.940Z,5.82
2023-04-17T14:26:24.264Z,5.57
2023-04-17T14:28:51.896Z,6.05
2023-04-17T14:31:19.237Z,6.35
2023-04-17T14:33:46.858Z,6.57
2023-04-17T14:36:14.229Z,5.35
2023-04-17T14:38:41.909Z,8.80
2023-04-17T14:41:09.314Z,9.18
2023-04-17T14:43:36.968Z,8.60
2023-04-17T14:46:04.414Z,6.05
2023-04-17T14:48:34.343Z,7.15
2023-04-17T14:51:06.040Z,10.30
2023-04-17T14:53:33.612Z,9.38
2023-04-17T14:56:00.931Z,8.85
2023-04-17T14:58:28.518Z,13.32
2023-04-17T15:00:55.875Z,11.52
2023-04-17T15:03:23.679Z,9.85
2023-04-17T15:05:52.300Z,10.15
2023-04-17T15:08:20.211Z,10.68
2023-04-17T15:10:51.578Z,11.98
2023-04-17T15:13:19.509Z,7.00
2023-04-17T15:15:46.918Z,14.73
2023-04-17T15:18:14.575Z,6.35
2023-04-17T15:20:41.918Z,15.45
2023-04-17T15:23:09.559Z,15.73
2023-04-17T15:25:36.939Z,20.52
2023-04-17T15:28:04.748Z,5.45
2023-04-17T15:30:32.110Z,8.95
2023-04-17T15:32:59.775Z,8.95
2023-04-17T15:35:27.133Z,10.05
2023-04-17T15:37:54.767Z,9.13
2023-04-17T15:40:22.028Z,10.45
2023-04-17T15:42:49.806Z,12.57
2023-04-17T15:45:17.221Z,9.65
2023-04-17T15:47:44.878Z,14.00
2023-04-17T15:50:12.424Z,13.05
2023-04-17T15:52:40.031Z,11.55
2023-04-17T15:55:07.468Z,9.10
2023-04-17T15:57:35.085Z,13.52
2023-04-17T16:00:02.518Z,10.95
2023-04-17T16:02:30.225Z,10.68
2023-04-17T16:04:57.660Z,12.35
2023-04-17T16:07:25.246Z,11.73
2023-04-17T16:09:52.531Z,10.18
2023-04-17T16:12:20.116Z,9.95
2023-04-17T16:14:47.825Z,11.73
2023-04-17T16:17:15.510Z,11.75
2023-04-17T16:19:42.823Z,11.75
2023-04-17T16:22:10.466Z,13.75
2023-04-17T16:24:37.765Z,12.48
2023-04-17T16:27:07.083Z,16.92
2023-04-17T16:29:34.377Z,11.65
2023-04-17T16:32:02.043Z,15.82
2023-04-17T16:34:29.395Z,16.13
2023-04-17T16:36:57.035Z,16.20
2023-04-17T16:39:24.646Z,24.20
2023-04-17T16:41:52.777Z,24.17
2023-04-17T16:44:20.395Z,19.00
2023-04-17T16:49:18.239Z,13.25
2023-04-17T16:51:45.827Z,16.50
2023-04-17T16:54:13.414Z,14.43
2023-04-17T16:56:41.959Z,14.25
2023-04-17T16:59:09.309Z,16.83
2023-04-17T17:01:37.255Z,13.10
2023-04-17T17:04:04.771Z,18.70
2023-04-17T17:06:32.417Z,17.15
2023-04-17T17:08:59.794Z,15.05
2023-04-17T17:11:27.644Z,18.90
2023-04-17T17:13:55.062Z,13.70
2023-04-17T17:16:22.931Z,12.05
2023-04-17T17:18:50.543Z,15.23
2023-04-17T17:21:18.305Z,19.42
2023-04-17T17:23:45.718Z,16.63
2023-04-17T17:26:13.505Z,12.80
2023-04-17T17:28:40.910Z,16.05
2023-04-17T17:31:09.073Z,12.63
2023-04-17T17:33:36.975Z,10.68
2023-04-17T17:36:04.955Z,15.23
2023-04-17T17:38:32.697Z,13.77
2023-04-17T17:41:00.574Z,9.88
2023-04-17T17:43:30.906Z,18.52
2023-04-17T17:46:13.522Z,16.10
2023-04-17T17:48:41.646Z,18.20
2023-04-17T17:51:09.315Z,13.40
2023-04-17T17:53:36.681Z,10.05
2023-04-17T17:56:04.496Z,10.63
2023-04-17T17:58:31.804Z,7.03
2023-04-17T18:00:59.430Z,9.38
2023-04-17T18:03:27.037Z,13.15
2023-04-17T18:05:55.180Z,10.93
2023-04-17T18:08:22.579Z,8.98
2023-04-17T18:10:50.171Z,10.20
2023-04-17T18:13:17.657Z,6.57
2023-04-17T18:15:45.388Z,6.65
2023-04-17T18:18:12.720Z,8.57
2023-04-17T18:20:40.836Z,5.30
2023-04-17T18:26:01.113Z,7.38
2023-04-17T18:28:28.848Z,5.68
2023-04-17T18:30:56.513Z,7.82
2023-04-17T18:33:23.884Z,8.13
2023-04-17T18:35:51.925Z,7.18
2023-04-17T18:38:19.429Z,8.25
2023-04-17T18:40:47.044Z,6.72
2023-04-17T18:43:14.578Z,8.05
2023-04-17T18:45:42.432Z,7.03
2023-04-17T18:48:09.873Z,7.63
2023-04-17T18:50:38.709Z,7.78
2023-04-17T18:53:06.114Z,8.30
2023-04-17T18:55:37.091Z,6.95
2023-04-17T18:58:05.168Z,8.25
2023-04-17T19:00:32.868Z,8.77
2023-04-17T19:03:00.406Z,9.05
2023-04-17T19:05:28.365Z,9.90
2023-04-17T19:07:55.892Z,9.07
2023-04-17T19:10:24.613Z,8.75
2023-04-17T19:12:51.975Z,8.70
2023-04-17T19:15:20.902Z,8.63
2023-04-17T19:17:48.346Z,9.45
2023-04-17T19:20:16.733Z,11.55
2023-04-17T19:22:44.340Z,8.70
2023-04-17T19:25:12.052Z,5.15
2023-04-17T19:27:39.398Z,6.50
2023-04-17T19:30:08.308Z,11.52
2023-04-17T19:32:35.959Z,9.57
2023-04-17T19:35:03.606Z,17.63
2023-04-17T19:37:31.298Z,9.98
2023-04-17T19:39:58.833Z,9.57
2023-04-17T19:42:27.102Z,9.32
2023-04-17T19:44:54.685Z,12.18
2023-04-17T19:47:23.976Z,11.18
2023-04-17T19:49:51.890Z,8.88
2023-04-17T19:52:19.287Z,6.35
2023-04-17T19:54:47.175Z,7.80
2023-04-17T19:57:14.734Z,11.25
2023-04-17T19:59:42.416Z,6.43
2023-04-17T20:02:10.938Z,10.77
2023-04-17T20:04:38.772Z,8.93
2023-04-17T20:07:06.063Z,9.65
2023-04-17T20:09:33.707Z,12.27
2023-04-17T20:12:00.978Z,10.43
2023-04-17T20:14:28.656Z,8.50
2023-04-17T20:16:56.272Z,10.35
2023-04-17T20:19:24.369Z,7.50
2023-04-17T20:21:51.681Z,10.30
2023-04-17T20:24:19.317Z,11.20
2023-04-17T20:26:46.684Z,6.53
2023-04-17T20:29:14.581Z,9.35
2023-04-17T20:31:42.263Z,11.43
2023-04-17T20:34:09.898Z,11.38
2023-04-17T20:36:37.163Z,9.43
2023-04-17T20:39:04.915Z,11.88
2023-04-17T20:41:32.202Z,11.10
2023-04-17T20:44:00.289Z,9.63
2023-04-17T20:46:28.238Z,11.98
2023-04-17T20:48:56.091Z,11.63
2023-04-17T20:51:27.433Z,10.27
2023-04-17T20:53:55.188Z,11.57
2023-04-17T20:56:23.072Z,11.88
2023-04-17T20:58:50.903Z,10.73
2023-04-17T21:01:18.263Z,10.02
2023-04-17T21:03:46.215Z,11.45
2023-04-17T21:06:13.577Z,11.25
2023-04-17T21:08:41.529Z,10.13
2023-04-17T21:11:08.869Z,11.23
2023-04-17T21:13:36.441Z,10.65
2023-04-17T21:16:03.781Z,10.63
2023-04-17T21:18:31.479Z,12.65
2023-04-17T21:20:58.767Z,11.05
2023-04-17T21:23:26.436Z,10.70
2023-04-17T21:25:54.855Z,12.07
2023-04-17T21:28:22.491Z,10.73
2023-04-17T21:30:49.838Z,11.60
2023-04-17T21:33:17.710Z,10.20
2023-04-17T21:35:45.651Z,10.63
2023-04-17T21:38:13.540Z,8.73
2023-04-17T21:40:50.505Z,10.65
2023-04-17T21:43:19.241Z,9.98
2023-04-17T21:45:46.881Z,10.50
2023-04-17T21:48:15.287Z,10.50
2023-04-17T21:50:43.227Z,10.63
2023-04-17T21:53:10.830Z,9.50
2023-04-17T21:55:38.665Z,9.50
2023-04-17T21:58:06.262Z,9.38
2023-04-17T22:00:33.645Z,9.82
2023-04-17T22:03:01.333Z,8.70
2023-04-17T22:05:28.717Z,9.90
2023-04-17T22:07:56.619Z,9.68
2023-04-17T22:10:24.549Z,8.73
2023-04-17T22:12:52.220Z,9.90
2023-04-17T22:15:19.635Z,8.63
2023-04-17T22:17:47.333Z,9.45
2023-04-17T22:20:14.658Z,10.02
2023-04-17T22:22:42.583Z,8.85
2023-04-17T22:25:09.966Z,10.20
2023-04-17T22:27:37.657Z,10.68
2023-04-17T22:30:06.395Z,10.48
2023-04-17T22:32:34.487Z,8.98
2023-04-17T22:35:01.861Z,9.07
2023-04-17T22:37:29.429Z,10.27
2023-04-17T22:39:56.730Z,9.65
2023-04-17T22:42:24.317Z,9.82
2023-04-17T22:44:51.979Z,9.57
2023-04-17T22:47:21.606Z,9.85
2023-04-17T22:49:49.006Z,9.77
2023-04-17T22:52:16.646Z,9.48
2023-04-17T22:54:43.955Z,9.95
2023-04-17T22:57:11.713Z,10.10
2023-04-17T22:59:39.029Z,8.05
2023-04-17T23:02:06.711Z,11.13
2023-04-17T23:07:19.466Z,9.50
2023-04-17T23:09:46.896Z,10.90
2023-04-17T23:12:14.622Z,8.38
2023-04-17T23:14:43.533Z,10.82
2023-04-17T23:17:11.274Z,9.35
2023-04-17T23:19:38.708Z,11.27
2023-04-17T23:22:07.448Z,10.68
2023-04-17T23:24:35.019Z,10.63
2023-04-17T23:27:02.736Z,10.55
2023-04-17T23:29:30.252Z,9.10
2023-04-17T23:31:57.941Z,10.32
2023-04-17T23:34:27.801Z,11.18
2023-04-17T23:36:55.470Z,10.75
2023-04-17T23:39:22.753Z,11.10
2023-04-17T23:41:50.431Z,9.93
2023-04-17T23:44:17.739Z,10.95
2023-04-17T23:46:45.436Z,12.25
2023-04-17T23:49:12.874Z,11.15
2023-04-17T23:51:40.440Z,11.45
2023-04-17T23:54:07.971Z,11.85
2023-04-17T23:56:35.720Z,10.13
2023-04-17T23:59:03.052Z,10.07
